Time;durP1;ratioP1;P1;durP2;ratioP2;P2;SDS_P1;SDS_P2;PMS_P1;PMS_P2;Temp;Humidity;BMP_temperature;BMP_pressure;BME280_temperature;BME280_humidity;BME280_pressure;Samples;Min_cycle;Max_cycle;Signal;HPM_P1;HPM_P2
2023/05/31 00:01:44;;;;;;;5.37;2.53;;;;;;;15.11;49.53;99433.84;5118595;27;40434;-79
2023/05/31 00:04:11;;;;;;;4.53;2.70;;;;;;;14.98;49.39;99427.69;5118039;27;40987;-79
2023/05/31 00:06:39;;;;;;;4.17;2.43;;;;;;;15.06;49.49;99426.19;5136287;27;41782;-79
2023/05/31 00:09:07;;;;;;;4.47;2.03;;;;;;;15.02;49.42;99435.38;5119144;27;42244;-79
2023/05/31 00:11:36;;;;;;;2.97;2.13;;;;;;;14.97;50.20;99418.81;5136727;27;40938;-79
2023/05/31 00:14:03;;;;;;;4.90;2.13;;;;;;;14.96;49.84;99424.31;5135325;27;42098;-79
2023/05/31 00:16:31;;;;;;;3.93;1.77;;;;;;;14.94;50.27;99420.88;5119034;27;41716;-79
2023/05/31 00:18:59;;;;;;;3.47;2.10;;;;;;;14.91;50.26;99413.09;5135908;27;41254;-79
2023/05/31 00:21:26;;;;;;;7.43;3.07;;;;;;;14.89;50.28;99418.53;5135198;27;40342;-79
2023/05/31 00:23:54;;;;;;;5.03;2.30;;;;;;;14.87;49.99;99419.59;5152817;27;41664;-78
2023/05/31 00:26:22;;;;;;;4.30;2.27;;;;;;;14.86;50.00;99412.56;5135146;27;41623;-79
2023/05/31 00:28:51;;;;;;;6.23;2.13;;;;;;;14.84;50.46;99411.81;5117880;27;41371;-79
2023/05/31 00:31:19;;;;;;;4.47;2.00;;;;;;;14.81;50.22;99420.06;5118125;27;39171;-78
2023/05/31 00:33:47;;;;;;;4.80;2.57;;;;;;;14.78;50.20;99406.94;5134857;27;41968;-79
2023/05/31 00:36:15;;;;;;;4.13;2.17;;;;;;;14.77;50.10;99410.56;5134856;27;41706;-79
2023/05/31 00:38:43;;;;;;;7.00;2.47;;;;;;;14.65;50.25;99394.47;5117901;27;41672;-79
2023/05/31 00:41:11;;;;;;;7.63;2.03;;;;;;;14.73;50.08;99412.56;5117766;27;39091;-79
2023/05/31 00:43:39;;;;;;;5.67;2.20;;;;;;;14.74;49.69;99420.47;5134534;27;42420;-79
2023/05/31 00:46:12;;;;;;;3.17;2.10;;;;;;;14.66;49.93;99401.50;5116493;27;41714;-79
2023/05/31 00:48:42;;;;;;;5.13;2.30;;;;;;;14.70;50.13;99419.00;5117031;27;41770;-79
2023/05/31 00:51:09;;;;;;;3.63;2.30;;;;;;;14.55;50.22;99393.41;5117312;27;40653;-79
2023/05/31 00:53:37;;;;;;;3.03;1.93;;;;;;;14.67;50.74;99413.88;5134586;27;41891;-79
2023/05/31 00:56:05;;;;;;;8.30;2.43;;;;;;;14.63;51.19;99404.38;5134621;27;43742;-80
2023/05/31 00:58:34;;;;;;;5.30;2.60;;;;;;;14.59;51.25;99404.69;5152962;27;42045;-80
2023/05/31 01:01:02;;;;;;;5.43;2.33;;;;;;;14.61;51.01;99408.97;5134739;27;39961;-80
2023/05/31 01:03:31;;;;;;;5.43;2.47;;;;;;;14.58;51.20;99406.53;5117371;27;40685;-80
2023/05/31 01:05:59;;;;;;;4.70;2.27;;;;;;;14.58;51.33;99408.34;5118146;27;41729;-79
2023/05/31 01:08:26;;;;;;;3.57;1.87;;;;;;;14.57;51.46;99415.50;5117807;27;41058;-79
2023/05/31 01:10:58;;;;;;;7.83;2.33;;;;;;;14.49;51.54;99399.16;5118502;27;39996;-79
2023/05/31 01:13:33;;;;;;;3.63;2.33;;;;;;;14.54;51.51;99412.19;5117526;27;40485;-79
2023/05/31 01:16:07;;;;;;;7.17;2.60;;;;;;;14.50;51.88;99416.84;5151022;27;42707;-78
2023/05/31 01:18:46;;;;;;;4.17;2.03;;;;;;;14.50;51.61;99406.19;5118339;27;41076;-79
2023/05/31 01:21:19;;;;;;;5.40;2.63;;;;;;;14.48;51.65;99408.09;5132550;27;40979;-80
2023/05/31 01:24:01;;;;;;;7.50;2.60;;;;;;;14.46;51.78;99404.72;5118283;27;40642;-80
2023/05/31 01:26:36;;;;;;;4.43;2.07;;;;;;;14.42;52.19;99403.22;5135725;27;41645;-79
2023/05/31 01:29:08;;;;;;;4.37;2.40;;;;;;;14.31;52.26;99389.75;5118462;27;41121;-81
2023/05/31 01:31:37;;;;;;;5.10;2.73;;;;;;;14.40;52.38;99396.28;5118211;27;39747;-79
2023/05/31 01:34:05;;;;;;;7.10;2.37;;;;;;;14.36;53.13;99403.59;5134227;27;40981;-80
2023/05/31 01:36:33;;;;;;;5.77;2.73;;;;;;;14.21;53.22;99378.03;5116531;27;42809;-79
2023/05/31 01:39:03;;;;;;;4.30;2.30;;;;;;;14.28;53.57;99398.81;5116306;27;41558;-79
2023/05/31 01:41:37;;;;;;;8.63;2.80;;;;;;;14.29;53.66;99397.00;5116990;27;40195;-80
2023/05/31 01:44:06;;;;;;;4.40;2.67;;;;;;;14.25;53.59;99401.69;5117084;27;41760;-80
2023/05/31 01:46:35;;;;;;;5.23;2.70;;;;;;;14.21;53.98;99394.03;5134612;27;42809;-79
2023/05/31 01:49:03;;;;;;;5.70;2.57;;;;;;;14.19;53.75;99393.28;5116939;27;41455;-81
2023/05/31 01:51:33;;;;;;;4.73;2.50;;;;;;;14.18;54.38;99394.22;5134197;27;39085;-79
2023/05/31 01:54:01;;;;;;;5.10;2.83;;;;;;;14.16;54.62;99398.81;5133747;27;42056;-79
2023/05/31 01:56:31;;;;;;;6.87;2.47;;;;;;;14.16;54.39;99390.81;5152515;27;43709;-79
2023/05/31 01:59:01;;;;;;;5.23;2.50;;;;;;;14.12;54.43;99395.50;5119993;27;41368;-79
2023/05/31 02:01:30;;;;;;;4.77;2.50;;;;;;;14.09;54.92;99389.53;5120239;27;38638;-79
2023/05/31 02:03:59;;;;;;;4.20;2.70;;;;;;;14.06;54.77;99384.41;5136933;27;42691;-79
2023/05/31 02:06:27;;;;;;;5.47;2.40;;;;;;;14.04;54.84;99389.84;5121252;27;41783;-79
2023/05/31 02:08:55;;;;;;;5.67;3.37;;;;;;;13.86;55.46;99362.63;5120922;27;41221;-79
2023/05/31 02:11:27;;;;;;;8.07;2.30;;;;;;;13.94;55.30;99380.78;5135553;27;39949;-79
2023/05/31 02:13:56;;;;;;;5.10;2.53;;;;;;;13.93;55.77;99385.25;5137228;27;40831;-78
2023/05/31 02:16:25;;;;;;;3.57;2.03;;;;;;;13.89;55.88;99383.75;5121057;27;42092;-80
2023/05/31 02:18:53;;;;;;;3.93;2.20;;;;;;;13.82;56.15;99377.13;5137913;27;43054;-79
2023/05/31 02:21:24;;;;;;;5.07;2.40;;;;;;;13.82;56.24;99385.13;5138727;27;40053;-79
2023/05/31 02:23:51;;;;;;;6.70;2.47;;;;;;;13.79;56.28;99382.66;5137833;27;41957;-79
2023/05/31 02:26:19;;;;;;;6.30;2.77;;;;;;;13.77;55.99;99389.88;5138229;27;43138;-80
2023/05/31 02:28:47;;;;;;;6.50;2.80;;;;;;;13.76;56.47;99387.31;5137725;27;42046;-78
2023/05/31 02:31:15;;;;;;;5.37;2.83;;;;;;;13.71;56.57;99385.00;5120835;27;40849;-78
2023/05/31 02:33:44;;;;;;;6.33;2.77;;;;;;;13.55;56.74;99369.19;5137720;27;41839;-78
2023/05/31 02:36:12;;;;;;;7.03;2.70;;;;;;;13.66;56.66;99389.75;5118744;27;41781;-79
2023/05/31 02:38:40;;;;;;;5.33;2.60;;;;;;;13.61;57.42;99391.84;5136514;27;42692;-78
2023/05/31 02:41:08;;;;;;;6.20;2.63;;;;;;;13.48;57.22;99377.66;5137150;27;40190;-79
2023/05/31 02:43:36;;;;;;;5.87;2.80;;;;;;;13.57;57.05;99395.69;5119248;27;40734;-78
2023/05/31 02:46:03;;;;;;;4.13;2.40;;;;;;;13.54;57.49;99393.22;5136797;27;43728;-78
2023/05/31 02:48:32;;;;;;;9.63;2.83;;;;;;;13.51;57.71;99393.44;5119291;27;42313;-78
2023/05/31 02:51:02;;;;;;;6.93;2.80;;;;;;;13.47;57.56;99381.31;5119426;27;39257;-78
2023/05/31 02:53:59;;;;;;;6.23;2.80;;;;;;;13.37;58.29;99374.84;5062705;27;40595;-79
2023/05/31 02:56:29;;;;;;;6.87;3.07;;;;;;;13.40;58.33;99390.63;5136479;27;43800;-78
2023/05/31 02:58:57;;;;;;;4.73;2.30;;;;;;;13.37;58.22;99397.00;5136161;27;41077;-78
2023/05/31 03:01:53;;;;;;;5.90;3.43;;;;;;;13.35;57.98;99398.06;5118408;27;38846;-78
2023/05/31 03:04:41;;;;;;;3.77;2.30;;;;;;;13.33;57.47;99394.66;5119327;27;40465;-78
2023/05/31 03:07:11;;;;;;;5.63;2.70;;;;;;;13.28;57.99;99397.59;5137332;27;43008;-79
2023/05/31 03:09:39;;;;;;;6.43;2.70;;;;;;;13.26;58.20;99387.06;5118836;27;41051;-79
2023/05/31 03:12:07;;;;;;;5.53;2.43;;;;;;;13.12;58.65;99368.44;5137610;27;40990;-78
2023/05/31 03:14:35;;;;;;;10.53;2.60;;;;;;;13.11;58.27;99385.34;5136350;27;42861;-78
2023/05/31 03:17:04;;;;;;;4.30;2.10;;;;;;;13.20;58.31;99390.13;5119984;27;41979;-77
2023/05/31 03:19:32;;;;;;;7.80;2.77;;;;;;;13.18;58.49;99392.03;5136899;27;42094;-79
2023/05/31 03:22:02;;;;;;;5.70;2.67;;;;;;;13.15;59.21;99386.91;5137351;27;40892;-79
2023/05/31 03:24:33;;;;;;;6.57;3.03;;;;;;;13.17;59.03;99395.63;5135986;27;41767;-78
2023/05/31 03:27:01;;;;;;;5.23;2.47;;;;;;;13.19;58.85;99399.06;5135703;27;42800;-79
2023/05/31 03:29:29;;;;;;;5.67;3.60;;;;;;;13.19;58.40;99403.53;5135891;27;43073;-79
2023/05/31 03:32:01;;;;;;;5.70;2.83;;;;;;;13.17;58.96;99400.94;5119099;27;39016;-79
2023/05/31 03:34:28;;;;;;;6.27;2.80;;;;;;;13.08;59.04;99385.56;5118519;27;40713;-78
2023/05/31 03:36:57;;;;;;;5.40;2.70;;;;;;;13.17;59.26;99400.94;5118733;27;43079;-78
2023/05/31 03:39:49;;;;;;;6.63;2.63;;;;;;;13.16;59.25;99404.56;5124488;27;42426;-80
2023/05/31 03:42:26;;;;;;;7.37;2.87;;;;;;;13.15;58.95;99402.00;5119045;27;39998;-79
2023/05/31 03:44:53;;;;;;;5.27;2.63;;;;;;;13.20;58.73;99411.41;5118243;27;40552;-78
2023/05/31 03:47:21;;;;;;;4.40;2.13;;;;;;;13.22;58.50;99414.81;5118545;27;43064;-79
2023/05/31 03:49:49;;;;;;;4.10;2.17;;;;;;;13.23;58.81;99416.50;5118538;27;41157;-79
2023/05/31 03:52:16;;;;;;;4.60;2.63;;;;;;;13.25;58.56;99413.75;5135772;27;40881;-78
2023/05/31 03:54:44;;;;;;;4.80;2.93;;;;;;;13.28;58.57;99414.41;5118327;27;40595;-79
2023/05/31 03:57:13;;;;;;;5.20;2.63;;;;;;;13.23;58.53;99400.53;5118264;27;42601;-79
2023/05/31 03:59:41;;;;;;;5.67;2.80;;;;;;;13.33;58.32;99411.47;5135222;27;42476;-79
2023/05/31 04:02:08;;;;;;;6.53;2.57;;;;;;;13.38;58.00;99416.47;5118389;27;40242;-78
2023/05/31 04:04:36;;;;;;;6.47;3.07;;;;;;;13.45;58.06;99416.00;5118596;27;42122;-79
2023/05/31 04:07:05;;;;;;;5.70;3.10;;;;;;;13.50;58.17;99411.19;5119191;27;42888;-79
2023/05/31 04:09:33;;;;;;;7.43;3.40;;;;;;;13.46;58.19;99398.22;5119336;27;41202;-78
2023/05/31 04:12:02;;;;;;;4.17;2.63;;;;;;;13.59;58.30;99410.63;5136785;27;40803;-79
2023/05/31 04:14:31;;;;;;;7.50;3.33;;;;;;;13.67;57.76;99410.09;5118843;27;40765;-79
2023/05/31 04:17:00;;;;;;;4.27;2.43;;;;;;;13.74;57.53;99416.72;5133845;27;42677;-80
2023/05/31 04:19:28;;;;;;;6.70;3.80;;;;;;;13.83;57.34;99421.44;5136595;27;42576;-79
2023/05/31 04:21:56;;;;;;;4.27;2.70;;;;;;;13.84;57.43;99419.63;5119274;27;40287;-78
2023/05/31 04:24:23;;;;;;;6.67;3.00;;;;;;;13.93;56.86;99427.00;5119036;27;41936;-79
2023/05/31 04:26:51;;;;;;;5.73;2.67;;;;;;;14.04;57.13;99432.47;5118840;27;41619;-78
2023/05/31 04:29:18;;;;;;;4.27;2.73;;;;;;;14.13;56.87;99436.28;5119147;27;40820;-79
2023/05/31 04:31:48;;;;;;;4.83;2.40;;;;;;;14.20;56.78;99434.94;5119205;27;39292;-78
2023/05/31 04:34:18;;;;;;;5.23;2.47;;;;;;;14.28;56.40;99428.13;5117673;27;40402;-79
2023/05/31 04:36:48;;;;;;;6.83;2.40;;;;;;;14.39;56.02;99438.03;5134725;27;43036;-80
2023/05/31 04:39:22;;;;;;;5.37;2.67;;;;;;;14.49;55.85;99441.81;5117252;27;41119;-79
2023/05/31 04:41:49;;;;;;;8.23;2.60;;;;;;;14.56;56.08;99436.91;5134842;27;39741;-79
2023/05/31 04:44:18;;;;;;;5.77;2.60;;;;;;;14.63;55.43;99436.38;5117297;27;40843;-79
2023/05/31 04:46:48;;;;;;;3.83;2.40;;;;;;;14.71;55.37;99451.84;5117442;27;41966;-79
2023/05/31 04:49:16;;;;;;;5.27;2.47;;;;;;;14.83;55.21;99458.13;5134294;27;42936;-78
2023/05/31 04:51:44;;;;;;;6.00;2.60;;;;;;;14.92;55.07;99449.47;5134497;27;39820;-79
2023/05/31 04:54:12;;;;;;;4.20;2.47;;;;;;;14.97;54.69;99452.66;5117653;27;40965;-79
2023/05/31 04:56:40;;;;;;;5.20;2.77;;;;;;;15.13;54.44;99463.94;5153738;27;43691;-79
2023/05/31 04:59:07;;;;;;;5.93;2.70;;;;;;;15.24;54.21;99466.69;5134702;27;42261;-78
2023/05/31 05:01:35;;;;;;;6.10;3.30;;;;;;;15.36;53.76;99465.81;5117475;27;39870;-79
2023/05/31 05:04:12;;;;;;;7.03;2.50;;;;;;;15.42;53.23;99462.72;5117680;27;41631;-80
2023/05/31 05:06:41;;;;;;;4.97;2.67;;;;;;;15.59;53.40;99473.97;5118699;27;42409;-79
2023/05/31 05:09:09;;;;;;;3.90;2.17;;;;;;;15.72;53.01;99477.47;5135863;27;43317;-79
2023/05/31 05:11:38;;;;;;;4.93;2.20;;;;;;;15.82;52.45;99472.31;5118491;27;38872;-78
2023/05/31 05:14:05;;;;;;;4.07;2.40;;;;;;;15.95;52.60;99484.63;5135170;27;41759;-78
2023/05/31 05:16:33;;;;;;;3.50;2.50;;;;;;;16.06;52.30;99479.34;5135916;27;42872;-78
2023/05/31 05:19:01;;;;;;;4.60;2.23;;;;;;;16.15;51.43;99491.16;5135373;27;42392;-80
2023/05/31 05:21:34;;;;;;;3.40;2.23;;;;;;;16.26;51.43;99482.31;5118329;27;38927;-78
2023/05/31 05:24:01;;;;;;;7.13;2.90;;;;;;;16.35;50.87;99497.66;5117622;27;40990;-78
2023/05/31 05:26:29;;;;;;;4.97;2.90;;;;;;;16.37;50.77;99482.38;5116255;27;43050;-78
2023/05/31 05:28:57;;;;;;;4.40;2.70;;;;;;;16.52;50.83;99481.19;5133543;27;41341;-79
2023/05/31 05:31:25;;;;;;;4.07;2.43;;;;;;;16.64;50.52;99499.00;5117037;27;39313;-78
2023/05/31 05:33:55;;;;;;;3.90;2.67;;;;;;;16.71;50.12;99505.56;5119659;27;40651;-78
2023/05/31 05:36:23;;;;;;;5.60;3.00;;;;;;;16.77;50.17;99499.75;5120386;27;41746;-78
2023/05/31 05:39:03;;;;;;;6.23;2.57;;;;;;;16.85;49.96;99491.97;5135876;27;42556;-78
2023/05/31 05:41:31;;;;;;;4.03;2.93;;;;;;;16.83;49.51;99483.22;5120728;27;38939;-77
2023/05/31 05:43:59;;;;;;;5.30;2.57;;;;;;;16.94;49.38;99486.91;5137706;27;41896;-78
2023/05/31 05:46:26;;;;;;;5.10;2.40;;;;;;;17.15;49.59;99514.63;5137503;27;43659;-78
2023/05/31 05:48:54;;;;;;;5.83;2.23;;;;;;;17.17;49.23;99492.13;5137136;27;43255;-78
2023/05/31 05:51:24;;;;;;;7.13;2.60;;;;;;;17.25;48.23;99504.91;5137418;27;42091;-79
2023/05/31 05:53:53;;;;;;;4.30;2.37;;;;;;;17.35;47.35;99516.56;5137361;27;42413;-79
2023/05/31 05:56:22;;;;;;;3.00;2.67;;;;;;;17.59;47.05;99522.63;5137752;27;42546;-79
2023/05/31 05:58:59;;;;;;;4.17;2.37;;;;;;;17.82;46.57;99525.28;5135897;27;42548;-78
2023/05/31 06:01:50;;;;;;;4.80;2.30;;;;;;;17.99;46.32;99531.97;5108135;27;39067;-79
2023/05/31 06:04:19;;;;;;;3.97;2.87;;;;;;;18.09;45.84;99528.41;5120395;27;40667;-81
2023/05/31 06:06:47;;;;;;;5.70;2.70;;;;;;;18.15;45.75;99517.19;5121325;27;42581;-80
2023/05/31 06:09:17;;;;;;;5.77;2.90;;;;;;;18.26;45.10;99518.97;5120962;27;41569;-84
2023/05/31 06:11:46;;;;;;;5.73;2.60;;;;;;;18.26;44.68;99498.38;5123091;27;39864;-79
2023/05/31 06:14:14;;;;;;;4.53;2.80;;;;;;;18.62;45.05;99531.13;5120005;27;40693;-77
2023/05/31 06:16:46;;;;;;;6.20;2.90;;;;;;;18.74;44.87;99527.41;5121720;27;41818;-84
2023/05/31 06:19:15;;;;;;;5.10;2.20;;;;;;;18.94;44.35;99531.91;5138088;27;42517;-79
2023/05/31 06:21:43;;;;;;;4.83;2.80;;;;;;;19.14;43.25;99542.75;5137407;27;40200;-78
2023/05/31 06:24:11;;;;;;;7.87;2.73;;;;;;;19.31;43.21;99542.13;5137051;27;41818;-79
2023/05/31 06:26:39;;;;;;;4.20;2.03;;;;;;;19.45;42.39;99536.38;5137396;27;43498;-76
2023/05/31 06:29:08;;;;;;;7.03;2.40;;;;;;;19.61;42.32;99547.53;5137287;27;42025;-84
2023/05/31 06:31:59;;;;;;;4.20;2.57;;;;;;;19.68;40.45;99548.66;5126117;27;39614;-83
2023/05/31 06:34:31;;;;;;;4.27;2.33;;;;;;;19.67;41.65;99514.72;5120349;27;40597;-84
2023/05/31 06:37:01;;;;;;;3.23;2.30;;;;;;;20.02;41.66;99540.28;5120282;27;42115;-87
2023/05/31 06:39:29;;;;;;;4.23;2.20;;;;;;;20.41;41.34;99552.78;5119950;27;40934;-88
2023/05/31 06:41:59;;;;;;;3.77;1.97;;;;;;;20.65;40.05;99551.50;5120158;27;40244;-82
2023/05/31 06:44:54;;;;;;;6.97;2.30;;;;;;;20.79;39.54;99562.69;5103656;27;40495;-87
2023/05/31 06:48:00;;;;;;;3.53;2.17;;;;;;;20.87;39.31;99564.69;5091656;28;42776;-88
2023/05/31 06:50:46;;;;;;;4.17;2.17;;;;;;;20.94;39.03;99555.03;5151907;27;42299;-85
2023/05/31 06:53:33;;;;;;;5.50;2.10;;;;;;;21.09;38.62;99558.97;5155916;27;39995;-79
2023/05/31 06:56:36;;;;;;;6.40;2.70;;;;;;;21.29;38.42;99561.63;5033589;28;41720;-77
2023/05/31 06:59:04;;;;;;;3.73;2.10;;;;;;;21.37;37.90;99553.69;5103889;27;43095;-79
2023/05/31 07:01:34;;;;;;;4.43;2.33;;;;;;;21.51;38.05;99539.72;5136540;27;42055;-81
2023/05/31 07:04:02;;;;;;;3.50;1.90;;;;;;;21.93;37.08;99568.88;5119790;27;39166;-81
2023/05/31 07:06:31;;;;;;;4.70;1.97;;;;;;;21.99;36.95;99558.38;5119725;27;40768;-80
2023/05/31 07:08:59;;;;;;;3.13;1.90;;;;;;;22.07;37.12;99544.13;5120294;27;42586;-80
2023/05/31 07:11:34;;;;;;;5.17;2.20;;;;;;;22.28;37.37;99557.31;5136589;27;42392;-82
2023/05/31 07:14:03;;;;;;;4.60;2.30;;;;;;;22.32;36.59;99554.16;5119987;27;39137;-81
2023/05/31 07:16:31;;;;;;;3.97;2.20;;;;;;;22.52;37.34;99544.03;5137301;27;41805;-85
2023/05/31 07:19:03;;;;;;;3.57;2.10;;;;;;;22.67;35.36;99557.84;5120327;27;41585;-85
2023/05/31 07:21:32;;;;;;;3.87;2.00;;;;;;;22.79;35.60;99567.44;5119665;27;41684;-82
2023/05/31 07:24:00;;;;;;;3.70;2.17;;;;;;;22.83;35.55;99549.94;5120433;27;40123;-81
2023/05/31 07:26:28;;;;;;;3.07;1.87;;;;;;;22.84;34.90;99506.56;5119802;27;42055;-79
2023/05/31 07:28:56;;;;;;;6.37;1.97;;;;;;;23.35;33.97;99501.28;5137050;27;41774;-81
2023/05/31 07:31:26;;;;;;;4.20;2.43;;;;;;;24.44;33.10;99567.13;5137103;27;42327;-83
2023/05/31 07:33:55;;;;;;;4.37;2.27;;;;;;;25.40;32.24;99560.00;5119368;27;39999;-85
2023/05/31 07:36:25;;;;;;;5.00;2.50;;;;;;;26.01;30.63;99532.13;5153899;27;41753;-78
2023/05/31 07:38:53;;;;;;;4.57;2.20;;;;;;;26.83;29.98;99576.75;5135957;27;41977;-84
2023/05/31 07:41:20;;;;;;;5.60;2.10;;;;;;;26.99;29.79;99572.25;5136115;27;43287;-82
2023/05/31 07:43:54;;;;;;;1.83;1.73;;;;;;;26.94;30.14;99566.53;5118911;27;39922;-82
2023/05/31 07:46:22;;;;;;;4.03;1.90;;;;;;;26.84;29.17;99575.72;5118923;27;41871;-83
2023/05/31 07:48:49;;;;;;;3.37;2.23;;;;;;;26.71;29.48;99566.50;5154647;27;42758;-84
2023/05/31 07:51:17;;;;;;;5.00;2.20;;;;;;;26.82;28.64;99564.22;5118110;27;41013;-79
2023/05/31 07:53:46;;;;;;;4.60;2.23;;;;;;;28.26;28.29;99560.28;5135792;27;38993;-83
2023/05/31 07:56:14;;;;;;;4.57;2.57;;;;;;;30.17;27.27;99564.53;5117607;27;40595;-77
2023/05/31 07:58:41;;;;;;;4.57;2.00;;;;;;;31.42;23.64;99572.94;5118770;27;43474;-80
2023/05/31 08:01:09;;;;;;;6.23;2.20;;;;;;;32.45;22.75;99582.97;5118751;27;42203;-84
2023/05/31 08:03:37;;;;;;;4.60;2.67;;;;;;;33.06;21.36;99585.13;5136190;27;40891;-84
2023/05/31 08:06:05;;;;;;;4.13;2.07;;;;;;;33.11;21.44;99588.03;5119229;27;40973;-87
2023/05/31 08:08:36;;;;;;;3.53;2.10;;;;;;;32.87;21.91;99569.66;5119800;27;42026;-87
2023/05/31 08:11:06;;;;;;;4.17;1.97;;;;;;;33.44;22.11;99573.19;5119253;27;42195;-83
2023/05/31 08:13:33;;;;;;;3.90;2.17;;;;;;;34.42;20.79;99535.47;5119513;27;40175;-85
2023/05/31 08:16:01;;;;;;;3.13;1.87;;;;;;;35.55;19.91;99590.41;5119076;27;42586;-82
2023/05/31 08:18:29;;;;;;;4.63;2.20;;;;;;;36.15;19.42;99592.88;5118438;27;41810;-77
2023/05/31 08:20:57;;;;;;;3.03;2.27;;;;;;;35.98;18.87;99579.00;5116986;27;41366;-80
2023/05/31 08:23:32;;;;;;;2.75;2.10;;;;;;;36.16;18.44;99585.44;5135312;27;41348;-85
2023/05/31 08:26:00;;;;;;;2.47;2.13;;;;;;;36.16;17.87;99596.47;5118372;27;41026;-81
2023/05/31 08:28:29;;;;;;;4.40;2.23;;;;;;;35.67;18.73;99551.81;5135273;27;42785;-80
2023/05/31 08:30:57;;;;;;;3.50;2.53;;;;;;;35.59;18.24;99566.00;5117987;27;42281;-80
2023/05/31 08:33:30;;;;;;;3.22;2.03;;;;;;;35.76;18.47;99600.00;5135868;27;20634;-80
2023/05/31 08:36:04;;;;;;;2.67;1.80;;;;;;;35.87;17.76;99588.13;5133385;27;41814;-82
2023/05/31 08:38:32;;;;;;;3.95;2.10;;;;;;;35.82;18.00;99590.78;5132464;27;43805;-79
2023/05/31 08:41:03;;;;;;;3.78;2.03;;;;;;;36.27;18.09;99576.31;5117433;27;41953;-79
2023/05/31 08:43:32;;;;;;;2.30;1.95;;;;;;;36.77;15.83;99609.59;5150539;27;40933;-84
2023/05/31 08:46:01;;;;;;;2.33;1.73;;;;;;;36.58;17.71;99584.13;5152703;27;41539;-82
2023/05/31 08:48:32;;;;;;;2.30;1.70;;;;;;;36.19;17.50;99590.47;5134815;27;41677;-80
2023/05/31 08:51:00;;;;;;;2.75;2.03;;;;;;;35.58;17.47;99589.09;5134299;27;41395;-80
2023/05/31 08:53:29;;;;;;;3.97;2.03;;;;;;;34.87;18.77;99573.53;5134718;27;38914;-83
2023/05/31 08:56:01;;;;;;;2.40;2.20;;;;;;;34.27;19.42;99547.97;5152901;27;41746;-80
2023/05/31 08:58:30;;;;;;;3.30;1.83;;;;;;;33.87;20.72;99560.28;5118142;27;41956;-85
2023/05/31 09:01:01;;;;;;;3.07;2.23;;;;;;;33.40;20.86;99559.06;5117607;27;41130;-87
2023/05/31 09:03:29;;;;;;;4.30;2.43;;;;;;;33.03;20.22;99552.63;5117281;27;38411;-78
2023/05/31 09:05:56;;;;;;;3.70;2.10;;;;;;;32.79;19.84;99561.69;5117595;27;42034;-78
2023/05/31 09:08:25;;;;;;;2.97;2.13;;;;;;;32.50;20.16;99545.84;5153218;27;42794;-83
2023/05/31 09:10:53;;;;;;;3.57;2.20;;;;;;;32.05;19.93;99537.59;5134659;27;41233;-79
2023/05/31 09:13:21;;;;;;;3.37;2.23;;;;;;;31.51;20.23;99513.34;5135229;27;39949;-81
2023/05/31 09:15:50;;;;;;;4.43;2.30;;;;;;;31.66;21.47;99528.47;5118270;27;40705;-84
2023/05/31 09:18:29;;;;;;;3.20;2.57;;;;;;;31.87;21.28;99519.13;5118297;27;43196;-84
2023/05/31 09:21:15;;;;;;;3.57;2.13;;;;;;;31.66;20.26;99517.50;5132533;27;42510;-84
2023/05/31 09:24:12;;;;;;;5.20;2.07;;;;;;;31.30;21.35;99484.31;5071862;28;40301;-85
2023/05/31 09:37:56;;;;;;;4.87;2.10;;;;;;;34.49;18.58;99544.47;5130590;27;40730;-85
2023/05/31 09:40:25;;;;;;;3.30;2.00;;;;;;;34.78;18.27;99555.69;5111516;27;41665;-79
2023/05/31 09:42:54;;;;;;;3.97;2.30;;;;;;;35.21;18.57;99544.41;5096573;27;42909;-83
2023/05/31 09:45:23;;;;;;;4.53;2.13;;;;;;;36.25;18.11;99550.88;5096081;27;42226;-82
2023/05/31 09:47:51;;;;;;;3.00;1.90;;;;;;;37.17;16.87;99554.25;5113236;27;40448;-81
2023/05/31 09:50:21;;;;;;;6.80;2.40;;;;;;;37.91;16.38;99529.91;5095767;27;40675;-79
2023/05/31 09:52:56;;;;;;;3.03;2.03;;;;;;;39.04;16.19;99541.13;5095979;27;41953;-83
2023/05/31 09:55:24;;;;;;;4.22;2.17;;;;;;;39.00;15.44;99528.91;5096182;27;42327;-84
2023/05/31 09:57:55;;;;;;;2.75;2.05;;;;;;;38.98;16.84;99542.19;5113743;27;40111;-84
2023/05/31 10:00:23;;;;;;;5.97;2.20;;;;;;;38.28;16.47;99537.56;5112849;27;40620;-80
2023/05/31 10:02:52;;;;;;;2.92;1.75;;;;;;;37.12;16.94;99533.97;5113245;27;41880;-81
2023/05/31 10:05:21;;;;;;;3.97;2.30;;;;;;;35.96;17.40;99511.41;5113488;27;41327;-82
2023/05/31 10:07:53;;;;;;;4.13;2.30;;;;;;;35.20;19.48;99510.50;5097457;27;40383;-81
2023/05/31 10:10:21;;;;;;;3.67;2.40;;;;;;;34.50;20.17;99460.84;5097061;27;42008;-84
2023/05/31 10:12:51;;;;;;;3.83;2.30;;;;;;;34.46;18.55;99520.19;5097703;27;42192;-87
2023/05/31 10:15:22;;;;;;;4.67;2.47;;;;;;;34.27;18.11;99521.28;5097845;27;42216;-85
2023/05/31 10:17:59;;;;;;;2.50;1.83;;;;;;;34.21;19.54;99478.22;5098056;27;41175;-85
2023/05/31 10:20:32;;;;;;;2.90;2.27;;;;;;;34.96;18.56;99510.75;5100508;27;41183;-80
2023/05/31 10:23:09;;;;;;;5.67;2.53;;;;;;;35.04;17.29;99494.69;5133107;27;42739;-81
2023/05/31 10:25:46;;;;;;;3.25;2.13;;;;;;;35.16;19.02;99509.31;5100120;27;41726;-78
2023/05/31 10:28:18;;;;;;;3.97;2.20;;;;;;;34.91;17.17;99503.19;5132615;27;40932;-89
2023/05/31 10:30:50;;;;;;;2.90;1.90;;;;;;;34.89;17.98;99508.09;5100417;27;40787;-81
2023/05/31 10:33:20;;;;;;;2.92;2.20;;;;;;;34.61;17.50;99521.66;5100259;27;41655;-84
2023/05/31 10:35:50;;;;;;;3.73;2.23;;;;;;;34.37;18.95;99488.56;5115765;27;42158;-82
2023/05/31 10:38:25;;;;;;;4.47;2.20;;;;;;;34.35;18.11;99501.75;5099255;27;40031;-79
2023/05/31 10:40:58;;;;;;;4.60;2.20;;;;;;;33.97;17.48;99498.44;5133093;27;42654;-83
2023/05/31 10:43:30;;;;;;;4.30;1.93;;;;;;;33.89;20.33;99472.94;5099919;27;42765;-81
2023/05/31 10:46:02;;;;;;;2.67;2.00;;;;;;;33.73;20.16;99465.31;5099301;27;41405;-87
2023/05/31 10:48:40;;;;;;;4.03;2.50;;;;;;;33.36;19.55;99463.66;5099998;27;39944;-86
2023/05/31 10:51:09;;;;;;;6.93;2.43;;;;;;;33.00;18.68;99481.72;5116409;27;41791;-84
2023/05/31 10:53:40;;;;;;;8.33;2.20;;;;;;;32.88;19.64;99483.53;5099566;27;41759;-83
2023/05/31 10:56:09;;;;;;;3.53;2.10;;;;;;;32.68;18.50;99472.69;5098957;27;41684;-81
2023/05/31 10:58:38;;;;;;;3.03;1.83;;;;;;;32.53;19.48;99457.59;5116224;27;39862;-82
2023/05/31 11:01:08;;;;;;;2.97;2.10;;;;;;;32.78;19.81;99463.97;5116131;27;41830;-84
2023/05/31 11:03:36;;;;;;;4.77;1.90;;;;;;;32.92;19.34;99479.25;5116246;27;42727;-83
2023/05/31 11:06:08;;;;;;;2.63;1.90;;;;;;;32.86;21.00;99440.91;5099497;27;41323;-82
2023/05/31 11:08:38;;;;;;;3.20;2.20;;;;;;;32.69;18.53;99462.53;5114283;27;39879;-81
2023/05/31 11:11:27;;;;;;;3.43;2.20;;;;;;;32.72;18.13;99484.94;5099772;27;40978;-81
2023/05/31 11:14:03;;;;;;;2.17;1.97;;;;;;;32.58;20.60;99446.81;5113775;27;42558;-81
2023/05/31 11:16:32;;;;;;;3.47;2.10;;;;;;;32.64;19.23;99460.47;5116190;27;42210;-77
2023/05/31 11:19:05;;;;;;;3.17;2.03;;;;;;;32.64;19.62;99459.66;5098231;27;40235;-82
2023/05/31 11:21:49;;;;;;;3.67;2.33;;;;;;;32.72;20.48;99451.16;5115432;27;42147;-79
2023/05/31 11:24:49;;;;;;;2.60;2.33;;;;;;;32.72;20.37;99440.19;5098791;27;42133;-81
2023/05/31 11:27:19;;;;;;;3.67;2.03;;;;;;;32.73;19.88;99445.47;5116872;27;42102;-84
2023/05/31 11:29:58;;;;;;;3.30;2.13;;;;;;;32.76;21.78;99430.47;5095329;28;38762;-82
2023/05/31 11:33:08;;;;;;;2.10;1.90;;;;;;;32.79;21.80;99432.72;5115054;28;41820;-80
2023/05/31 11:35:36;;;;;;;4.83;2.17;;;;;;;32.85;20.21;99440.06;5095582;28;41750;-82
2023/05/31 11:38:06;;;;;;;2.37;2.17;;;;;;;32.93;18.87;99453.50;5098354;27;41444;-84
2023/05/31 11:40:39;;;;;;;3.27;2.00;;;;;;;32.93;18.81;99419.72;5116703;27;40206;-85
2023/05/31 11:43:11;;;;;;;2.43;2.07;;;;;;;33.27;19.78;99399.94;5098232;27;40861;-82
2023/05/31 11:45:47;;;;;;;3.47;2.03;;;;;;;33.88;20.96;99387.97;5113049;27;41664;-83
2023/05/31 11:48:37;;;;;;;3.20;2.20;;;;;;;34.45;20.19;99391.97;5097148;27;41566;-84
2023/05/31 11:51:05;;;;;;;4.00;1.97;;;;;;;35.66;19.10;99426.13;5097901;27;40947;-82
2023/05/31 11:53:33;;;;;;;3.50;1.97;;;;;;;36.97;18.87;99416.63;5097939;27;40932;-86
2023/05/31 11:56:03;;;;;;;2.15;1.95;;;;;;;38.26;17.43;99434.59;5097477;27;42783;-85
2023/05/31 11:58:30;;;;;;;4.38;2.75;;;;;;;38.95;17.10;99437.44;5098261;27;43488;-85
2023/05/31 12:00:59;;;;;;;2.47;2.13;;;;;;;38.89;14.80;99447.63;5115232;27;40235;-78
2023/05/31 12:03:27;;;;;;;4.15;2.22;;;;;;;39.43;15.18;99444.69;5132620;27;42231;-77